16.12.2018Höhe
ü. NN
ZeitTemperatur (°C)Nieder-
schlag
Luft-
feuchte
Luft-
druck
Wind
StationaktuellMinimumMaximumaktuellMaximum
Aldingen654 m03:11-4,0-4,8 (20:27)-3,8 (14:11)0,2 l/m²88%1017,913,0 km/h (3 Bft) O-SO24,1 km/h (4 Bft) SO (21:58)
Allmendingen541 m03:10-4,4-7,2 (23:55)-4,4 (14:05)0,0 l/m²90%1017,24,8 km/h (1 Bft) S-SO17,7 km/h (3 Bft) SO (20:00)
Altshausen574 m03:10-5,6-6,7 (00:00)-5,6 (02:29)0,0 l/m²89%1014,21,6 km/h (1 Bft) S4,8 km/h (1 Bft) W-SW (00:51)
Amstetten-Reutti663 m03:10-5,0-5,4 (00:10)-4,8 (15:40)0,0 l/m²92%1017,225,7 km/h (4 Bft) O-SO33,8 km/h (5 Bft) O (20:40)
Amtzell-Grenis677 m03:10-5,4-7,4 (00:05)-5,4 (03:10)0,0 l/m²83%1019,56,4 km/h (2 Bft) S11,3 km/h (2 Bft) O (00:30)
Aulendorf570 m03:10-5,3-5,4 (00:00)-5,2 (02:34)0,0 l/m²85%1017,30,0 km/h (0 Bft) NO8,0 km/h (2 Bft) NO (00:02)
Bad Krozingen233 m03:10-1,4-1,8 (20:40)-1,2 (13:25)0,0 l/m²94%1015,56,6 km/h (2 Bft) W-NW9,9 km/h (2 Bft) N (14:30)
Bad Saulgau595 m03:10-5,4-6,8 (22:55)-5,4 (14:10)0,0 l/m²90%1016,73,2 km/h (1 Bft) NW19,3 km/h (3 Bft) W (10:40)
Bad Saulgau-Lampertsweiler627 m03:10-5,9-6,3 (01:15)-5,8 (00:00)0,0 l/m²86%1019,83,2 km/h (1 Bft) SO4,8 km/h (1 Bft) W-NW (01:50)
Bad Schussenried572 m03:10-5,2-6,7 (00:00)-5,2 (03:00)0,0 l/m²92%1016,00,0 km/h (0 Bft) O0,0 km/h (0 Bft) O (00:00)
Biberach (Riss), Boehringer533 m03:10-4,3-6,1 (00:00)-4,3 (03:10)0,0 l/m²83%1016,03,2 km/h (1 Bft) S10,1 km/h (2 Bft) S-SO (02:50)
Biberach (Riss), Realschule553 m03:10-4,9-5,3 (00:00)-4,9 (02:50)0,0 l/m²86%1018,56,4 km/h (2 Bft) S-SO16,1 km/h (3 Bft) O (00:25)
Bodnegg-Rotheidlen677 m03:10-5,8-6,9 (00:00)-5,4 (02:30)0,0 l/m²89%1018,00,0 km/h (0 Bft) SW11,3 km/h (2 Bft) SW (02:00)
Burgrieden523 m03:10-5,1-6,1 (00:05)-5,1 (02:30)0,0 l/m²84%1017,54,8 km/h (1 Bft) O-SO12,9 km/h (3 Bft) O (01:10)
Burgrieden-Hochstetten510 m03:10-4,6-6,4 (23:21)-4,6 (11:45)0,0 l/m²88%1017,84,8 km/h (1 Bft) SO20,9 km/h (4 Bft) O-SO (15:25)
Ebersbach579 m03:10-5,6-6,9 (00:00)-5,6 (02:40)0,0 l/m²93%1018,70,0 km/h (0 Bft) O-NO0,0 km/h (0 Bft) NO (00:00)
Ebersbach-Boos605 m03:10-5,8-6,8 (00:00)-5,8 (03:10)0,0 l/m²93%1018,30,0 km/h (0 Bft) W-SW0,0 km/h (0 Bft) O-SO (00:00)
Ebersbach-Menzenweiler661 m03:10-5,7-6,2 (00:05)-5,7 (02:55)0,0 l/m²91%1018,39,7 km/h (2 Bft) SO11,3 km/h (2 Bft) O-NO (00:05)
Erlenmoos645 m03:10-5,3-6,2 (00:05)-5,3 (03:10)0,0 l/m²92%1017,93,2 km/h (1 Bft) S-SO16,1 km/h (3 Bft) O-SO (00:00)
Ertingen569 m03:15-5,1-6,1 (00:00)-5,1 (03:05)0,0 l/m²90%1017,30,0 km/h (0 Bft) NO4,8 km/h (1 Bft) NO (00:20)
Friedrichshafen405 m03:10-3,9-4,7 (22:40)-3,9 (14:45)0,0 l/m²84%1018,26,4 km/h (2 Bft) NO14,5 km/h (3 Bft) O-NO (08:45)
Günzburg443 m03:10-3,8-4,2 (00:50)-3,7 (00:00)0,0 l/m²83%1015,10,0 km/h (0 Bft) N8,0 km/h (2 Bft) O-SO (01:35)
Höchsten802 m03:10-6,1-6,4 (00:00)-5,8 (02:00)0,0 l/m²89%1016,011,3 km/h (2 Bft) SW12,9 km/h (3 Bft) SW (02:45)
Horgenzell618 m03:10-3,3-3,3 (00:00)-3,3 (00:00)0,0 l/m²86%1010,912,9 km/h (3 Bft) O-NO12,9 km/h (3 Bft) O-NO (00:00)
Hoßkirch632 m03:10-5,8-8,0 (00:00)-5,8 (03:05)0,0 l/m²93%1017,10,0 km/h (0 Bft) W9,7 km/h (2 Bft) W (00:45)
Isny, Am Dreifingerbach695 m03:10-6,4-9,1 (00:00)-6,4 (03:10)0,0 l/m²90%1018,36,4 km/h (2 Bft) O-SO6,4 km/h (2 Bft) O-SO (03:10)
Isny, Weidachweg706 m03:10-6,2-9,0 (00:15)-6,1 (03:00)0,0 l/m²83%1020,06,4 km/h (2 Bft) SO6,4 km/h (2 Bft) SO (00:05)
Kappel-Grafenhausen163 m03:05-1,1-1,6 (20:10)-0,9 (13:55)0,0 l/m²89%1013,64,8 km/h (1 Bft) S-SW12,9 km/h (3 Bft) W (15:00)
Kirchberg an der Iller584 m03:10-5,3-5,8 (23:50)-5,3 (15:10)0,0 l/m²86%1008,00,0 km/h (0 Bft) W13,8 km/h (3 Bft) W-NW (17:10)
Kißlegg-Staibshof709 m03:10-6,4-6,9 (00:15)-6,3 (02:30)0,0 l/m²91%1018,30,0 km/h (0 Bft) SW0,0 km/h (0 Bft) O-NO (00:00)
Kressbronn398 m03:14-3,8-5,4 (00:00)-3,8 (03:14)0,0 l/m²84%1016,90,0 km/h (0 Bft) O6,4 km/h (2 Bft) O (02:10)
Kreuzthal-Steinberg-Alpe930 m03:10-6,0-7,9 (00:10)-5,5 (02:50)0,0 l/m²100%1018,02,5 km/h (1 Bft) W-SW7,9 km/h (2 Bft) SO (01:50)
Kreuzthal-Steinberggipfel1040 m03:10-6,2-6,8 (00:10)-4,8 (01:20)-100%1018,06,5 km/h (2 Bft) SW13,3 km/h (3 Bft) W-SW (03:00)
Kristberg im Montafon (AT)1425 m03:10-1,8-3,9 (00:00)-1,7 (02:40)0,0 l/m²48%1018,40,0 km/h (0 Bft) N-NO9,7 km/h (2 Bft) NO (00:45)
Laupheim500 m03:10-4,9-6,0 (00:10)-4,8 (02:05)0,0 l/m²84%1016,96,4 km/h (2 Bft) S-SO9,7 km/h (2 Bft) O-SO (00:55)
Leutkirch-Heggelbach670 m03:10-6,3-8,3 (00:00)-6,3 (03:10)0,0 l/m²92%1017,40,0 km/h (0 Bft) SW0,0 km/h (0 Bft) N-NO (00:00)
Lindau-Insel420 m03:10-2,8-4,7 (00:00)-2,8 (14:25)0,0 l/m²83%1017,40,0 km/h (0 Bft) O-NO14,5 km/h (3 Bft) NO (11:35)
Lindau-Stadt412 m03:10-4,0-5,2 (23:10)-4,0 (11:15)0,0 l/m²86%1017,81,6 km/h (1 Bft) O-NO11,3 km/h (2 Bft) NO (11:30)
Maierhöfen im Allgäu733 m03:15-6,3-10,7 (00:00)-6,2 (03:15)0,0 l/m²90%1019,10,0 km/h (0 Bft) SW4,8 km/h (1 Bft) S-SO (02:31)
Maselheim-Sulmingen548 m03:10-5,5-7,5 (00:00)-5,5 (12:25)0,0 l/m²88%1018,78,0 km/h (2 Bft) SO20,9 km/h (4 Bft) O (14:00)
Mietingen-Baltringen528 m03:10-5,1-6,6 (00:05)-5,1 (03:10)0,0 l/m²82%1019,54,8 km/h (1 Bft) S11,3 km/h (2 Bft) O (00:45)
Mindelheim-Apfeltrach620 m03:11-7,0-7,9 (00:20)-7,0 (03:10)0,0 l/m²90%1019,00,0 km/h (0 Bft) SO9,7 km/h (2 Bft) SO (01:07)
Neresheim552 m00:00-5,0-5,0 (00:00)-5,0 (00:00)0,0 l/m²85%1016,65,0 km/h (1 Bft) S-SO5,0 km/h (1 Bft) S-SO (00:00)
Neukirch570 m03:10-5,3-6,1 (23:00)-5,3 (14:55)0,0 l/m²88%1018,54,8 km/h (1 Bft) N-NO20,9 km/h (4 Bft) O-NO (11:50)
Ochsenhausen, Birkenstraße613 m03:10-5,5-6,2 (23:00)-5,5 (15:20)0,0 l/m²83%1018,24,8 km/h (1 Bft) O-NO19,3 km/h (3 Bft) O-NO (14:15)
Ostrach619 m03:10-4,7-6,1 (22:35)-4,7 (14:10)0,0 l/m²91%1016,43,2 km/h (1 Bft) O-NO17,7 km/h (3 Bft) N-NO (14:45)
Ravensburg428 m03:10-3,8-4,9 (01:00)-3,8 (02:30)0,0 l/m²84%1017,23,2 km/h (1 Bft) N9,7 km/h (2 Bft) NO (00:00)
Reichenbach an der Fils343 m03:10-2,1-3,3 (00:00)-2,1 (02:30)0,0 l/m²77%1018,720,9 km/h (4 Bft) O-SO30,6 km/h (5 Bft) O-SO (00:45)
Reinstetten559 m03:10-5,4-6,4 (00:00)-5,4 (03:05)0,0 l/m²88%1018,04,8 km/h (1 Bft) S-SO11,3 km/h (2 Bft) O-SO (00:20)
Riedlingen530 m03:10-4,8-5,2 (00:05)-4,8 (00:50)0,0 l/m²88%1017,50,0 km/h (0 Bft) O0,0 km/h (0 Bft) O-NO (00:00)
Rißtissen489 m03:10-4,0-4,8 (00:00)-4,0 (02:45)0,0 l/m²89%1014,91,6 km/h (1 Bft) O-SO9,7 km/h (2 Bft) O (01:15)
Schemmerhofen520 m03:10-4,8-5,2 (00:00)-4,8 (02:45)0,0 l/m²90%1017,10,0 km/h (0 Bft) O-NO6,4 km/h (2 Bft) O-NO (00:20)
Silbertal im Montafon (AT)884 m03:10-3,5-7,2 (00:00)-3,5 (03:10)0,0 l/m²89%1020,51,6 km/h (1 Bft) W3,2 km/h (1 Bft) W (03:00)
Tettnang466 m03:10-3,9-5,4 (00:00)-3,9 (03:10)0,0 l/m²86%1016,66,4 km/h (2 Bft) O6,4 km/h (2 Bft) O-NO (03:05)
Tuttlingen662 m03:10-6,3-7,4 (00:00)-6,3 (03:00)0,0 l/m²88%1017,73,1 km/h (1 Bft) O-NO3,1 km/h (1 Bft) O-NO (03:10)
Ummendorf547 m03:10-5,1-5,5 (00:05)-4,9 (02:50)0,0 l/m²85%1018,63,2 km/h (1 Bft) S-SO14,5 km/h (3 Bft) SO (00:25)
Ummendorf-Fischbach558 m03:10-5,2-6,0 (00:00)-5,2 (03:00)0,0 l/m²86%1018,66,4 km/h (2 Bft) S9,7 km/h (2 Bft) S-SW (00:00)
Waldburg707 m03:10-5,0-6,7 (00:00)-4,9 (02:05)0,0 l/m²90%1017,80,0 km/h (0 Bft) N12,9 km/h (3 Bft) N (00:10)
Waltenhofen im Allgäu720 m03:10-9,0-12,3 (00:10)-9,0 (03:10)0,0 l/m²91%1018,40,0 km/h (0 Bft) S4,8 km/h (1 Bft) S (01:45)
Weingarten500 m03:10-4,5-6,0 (00:00)-4,5 (03:10)0,0 l/m²86%1017,51,6 km/h (1 Bft) S6,4 km/h (2 Bft) O (02:05)
Winterlingen785 m01:00-7,1-7,1 (01:00)-6,9 (00:30)0,0 l/m²93%1016,33,2 km/h (1 Bft) S3,6 km/h (1 Bft) SO (00:10)

Werbung
niederschlagsdatenbank | info | login - erfassung

Sollten Sie Interesse haben, an der Niederschlagsdatenbank teilzunehmen, finden Sie > hier < weitere Informationen.

Niederschlagsdaten der Station Ravensburg - Bleicherstraße

Raimund Raisch

Niederschlagsstation aufgenommen ins Stationsnetz der Wetterwarte Süd am 26.07.2010
Monat: .
Anmerkung:0,0 = nicht messbarer Niederschlag
 -  = kein Niederschlag

Stationsdaten

Höhe

430 m

Lage

Auf Google Maps ansehen

Beschreibung

Die Station befindet sich im lockeren bebauten Industrie- und Gewerbmischgebiet und liegt 100 m Luftlinie von der Oberschwabenhalle entfernt. Richtung Westen, ca. 30m, befindet sich eine 20 m hohe Fabrikhalle, gegen Norden, Osten und Süden eine lockere zwei stöckige Bebauung.
< November 2018

Dezember 2018

TagNiederschlagBemerkung
01.2,0
02.19,6
03.11,6
04.10,4
05.1,1
06.0,4
07.6,3
08.7,0
09.11,2
10.3,0
11.-
12.-
13.-
14.-
15.-
16.-
17.-
18.-
19.-
20.-
21.-
22.-
23.-
24.-
25.-
26.-
27.-
28.-
29.-
30.-
31.-
Gesamt:72,6 
Die Spalten "Tag" und "Niederschlag" lassen sich durch Klicken auf den Spaltenkopf sortieren.
Die Angaben sind in l/m².

< November 2018


Monats- und Jahresniederschlag


Wetterbeobachtungen Legende:

  • Regen
  • Nieselregen
  • Schneeregen
  • Schnee
  • Graupel
  • Eiskörner
  • Hagel
  • Bodennebel
  • Gewitter
  • Nebelnässe
  • Schneegriesel

Grafische Darstellung der Niederschläge der Station Ravensburg Dezember 2018

 
wetterstationen
wetterstationen
- derzeit 73 Stationen
niederschlagsdatenbank
wetterstationen
- kartographische Darstellung
niederschlagsdatenbank
niederschlagsstationen
- derzeit 102 Stationen
niederschlagsdatenbank
niederschlagsstationen
- kartographische Darstellung
 
  treffpunkt & service
--- Anzeigen --------------------------------
zugriffe:
insgesamt: 40.146.810
aktueller monat: 220.822
heute: 381
momentan online: 5
 
 
monatshöchstwert: 653.625
vorheriger monat: 361.432
gestern: 15.885
tageshöchstwert: 45.129
 
wetterwarte süd
 
konradstraße 3
info@wetterwarte-sued.com
roland roth
 
88427 bad schussenried